createdAt,value
2024-02-24T00:02:07.861Z,101226.31
2024-02-24T00:04:38.610Z,101231.78
2024-02-24T00:07:08.998Z,101234.28
2024-02-24T00:09:39.429Z,101240.09
2024-02-24T00:12:10.440Z,101238.91
2024-02-24T00:14:41.070Z,101236.63
2024-02-24T00:17:11.600Z,101245.16
2024-02-24T00:19:42.553Z,101246.84
2024-02-24T00:22:13.705Z,101240.16
2024-02-24T00:24:43.907Z,101249.78
2024-02-24T00:27:14.381Z,101244.16
2024-02-24T00:29:44.733Z,101247.28
2024-02-24T00:32:15.251Z,101244.19
2024-02-24T00:34:46.673Z,101213.78
2024-02-24T00:37:17.232Z,101244.63
2024-02-24T00:39:47.773Z,101245.72
2024-02-24T00:42:18.144Z,101256.94
2024-02-24T00:44:48.514Z,101259.25
2024-02-24T00:47:19.406Z,101262.38
2024-02-24T00:49:49.915Z,101256.34
2024-02-24T00:52:20.334Z,101252.59
2024-02-24T00:54:50.709Z,101270.28
2024-02-24T00:57:21.388Z,101270.94
2024-02-24T00:59:51.663Z,101265.34
2024-02-24T01:02:21.804Z,101275.94
2024-02-24T01:04:54.623Z,101270.53
2024-02-24T01:07:25.087Z,101274.91
2024-02-24T01:09:55.654Z,101278.25
2024-02-24T01:12:25.929Z,101287.84
2024-02-24T01:14:58.634Z,101282.00
2024-02-24T01:17:32.273Z,101285.31
2024-02-24T01:20:02.718Z,101282.44
2024-02-24T01:22:33.405Z,101282.25
2024-02-24T01:25:03.963Z,101288.25
2024-02-24T01:27:34.399Z,101289.94
2024-02-24T01:30:04.911Z,101275.34
2024-02-24T01:32:35.392Z,101296.59
2024-02-24T01:35:06.263Z,101306.63
2024-02-24T01:37:37.364Z,101304.94
2024-02-24T01:40:08.955Z,101302.63
2024-02-24T01:42:39.403Z,101302.88
2024-02-24T01:45:09.940Z,101312.66
2024-02-24T01:47:41.271Z,101315.75
2024-02-24T01:50:12.716Z,101318.72
2024-02-24T01:52:45.494Z,101316.22
2024-02-24T01:55:16.351Z,101321.22
2024-02-24T01:57:47.335Z,101327.88
2024-02-24T02:00:18.098Z,101322.88
2024-02-24T02:02:49.752Z,101328.09
2024-02-24T02:05:20.444Z,101330.38
2024-02-24T02:07:50.733Z,101315.59
2024-02-24T02:10:21.779Z,101325.00
2024-02-24T02:12:52.385Z,101325.41
2024-02-24T02:15:23.065Z,101323.34
2024-02-24T02:17:53.833Z,101321.22
2024-02-24T02:20:24.481Z,101312.50
2024-02-24T02:22:55.401Z,101324.78
2024-02-24T02:25:26.014Z,101315.00
2024-02-24T02:27:56.396Z,101294.97
2024-02-24T02:30:27.038Z,101312.06
2024-02-24T02:32:57.649Z,101324.19
2024-02-24T02:35:29.080Z,101314.56
2024-02-24T02:37:59.612Z,101315.63
2024-02-24T02:40:29.995Z,101321.25
2024-02-24T02:43:00.755Z,101326.25
2024-02-24T02:45:31.341Z,101307.94
2024-02-24T02:48:01.737Z,101314.56
2024-02-24T02:50:32.358Z,101313.13
2024-02-24T02:53:02.746Z,101313.72
2024-02-24T02:55:33.048Z,101316.88
2024-02-24T02:58:03.724Z,101309.13
2024-02-24T03:00:34.064Z,101307.47
2024-02-24T03:03:04.548Z,101306.41
2024-02-24T03:05:35.119Z,101300.78
2024-02-24T03:08:06.140Z,101294.94
2024-02-24T03:10:36.849Z,101300.56
2024-02-24T03:13:07.262Z,101292.19
2024-02-24T03:15:38.303Z,101289.91
2024-02-24T03:18:08.852Z,101292.38
2024-02-24T03:20:39.506Z,101292.00
2024-02-24T03:23:10.473Z,101290.34
2024-02-24T03:25:41.702Z,101288.84
2024-02-24T03:28:12.270Z,101293.22
2024-02-24T03:30:42.578Z,101294.50
2024-02-24T03:33:14.926Z,101294.91
2024-02-24T03:35:45.496Z,101290.09
2024-02-24T03:38:16.330Z,101279.03
2024-02-24T03:40:46.714Z,101276.94
2024-02-24T03:43:17.128Z,101279.22
2024-02-24T03:45:47.737Z,101280.47
2024-02-24T03:48:18.289Z,101274.81
2024-02-24T03:50:49.327Z,101273.34
2024-02-24T03:53:19.864Z,101266.03
2024-02-24T03:55:52.129Z,101260.19
2024-02-24T03:58:23.800Z,101247.84
2024-02-24T04:00:54.389Z,101235.97
2024-02-24T04:03:25.306Z,101240.31
2024-02-24T04:05:56.638Z,101236.97
2024-02-24T04:08:27.727Z,101222.75
2024-02-24T04:10:58.217Z,101222.16
2024-02-24T04:13:28.870Z,101219.19
2024-02-24T04:15:59.416Z,101211.47
2024-02-24T04:18:29.855Z,101216.47
2024-02-24T04:21:00.574Z,101208.50
2024-02-24T04:23:31.387Z,101211.84
2024-02-24T04:26:01.936Z,101212.00
2024-02-24T04:28:32.340Z,101195.09
2024-02-24T04:31:02.567Z,101203.22
2024-02-24T04:33:32.982Z,101192.75
2024-02-24T04:36:07.056Z,101195.00
2024-02-24T04:38:37.706Z,101177.69
2024-02-24T04:41:08.406Z,101183.50
2024-02-24T04:43:38.968Z,101176.19
2024-02-24T04:46:09.532Z,101166.78
2024-02-24T04:48:40.062Z,101174.69
2024-02-24T04:51:11.373Z,101163.41
2024-02-24T04:53:41.791Z,101172.13
2024-02-24T04:56:17.583Z,101162.06
2024-02-24T04:58:48.106Z,101160.41
2024-02-24T05:01:21.693Z,101153.28
2024-02-24T05:03:52.299Z,101148.66
2024-02-24T05:06:47.543Z,101148.56
2024-02-24T05:09:18.195Z,101143.97
2024-02-24T05:11:49.284Z,101138.53
2024-02-24T05:14:20.714Z,101131.00
2024-02-24T05:16:51.320Z,101142.03
2024-02-24T05:19:21.707Z,101131.34
2024-02-24T05:21:52.398Z,101101.13
2024-02-24T05:24:23.381Z,101118.59
2024-02-24T05:26:54.137Z,101112.63
2024-02-24T05:29:24.697Z,101112.63
2024-02-24T05:31:54.891Z,101106.41
2024-02-24T05:34:25.964Z,101102.94
2024-02-24T05:36:56.942Z,101097.66
2024-02-24T05:39:27.337Z,101092.97
2024-02-24T05:41:58.709Z,101081.91
2024-02-24T05:44:29.352Z,101078.19
2024-02-24T05:47:00.534Z,101064.84
2024-02-24T05:49:31.140Z,101069.06
2024-02-24T05:52:01.605Z,101060.94
2024-02-24T05:54:31.876Z,101057.84
2024-02-24T05:57:06.775Z,101055.56
2024-02-24T05:59:37.927Z,101042.22
2024-02-24T06:02:08.558Z,101036.59
2024-02-24T06:04:40.648Z,101040.31
2024-02-24T06:07:11.336Z,101044.09
2024-02-24T06:09:41.860Z,101041.69
2024-02-24T06:12:12.226Z,101042.88
2024-02-24T06:14:43.135Z,101031.44
2024-02-24T06:17:13.844Z,101031.28
2024-02-24T06:19:44.394Z,101027.06
2024-02-24T06:22:14.794Z,101021.63
2024-02-24T06:24:46.061Z,101018.69
2024-02-24T06:27:16.560Z,101017.88
2024-02-24T06:29:46.877Z,101019.91
2024-02-24T06:32:17.461Z,101021.03
2024-02-24T06:34:48.337Z,101006.34
2024-02-24T06:37:18.756Z,101008.69
2024-02-24T06:39:49.650Z,101003.69
2024-02-24T06:42:19.958Z,101005.81
2024-02-24T06:44:50.509Z,101001.19
2024-02-24T06:47:28.627Z,100987.88
2024-02-24T06:50:00.198Z,100992.47
2024-02-24T06:52:30.673Z,100986.50
2024-02-24T06:55:02.325Z,100977.03
2024-02-24T06:57:32.814Z,100973.25
2024-02-24T07:00:03.756Z,100975.34
2024-02-24T07:02:34.283Z,100960.28
2024-02-24T07:05:05.970Z,100951.19
2024-02-24T07:07:37.423Z,100950.50
2024-02-24T07:10:08.592Z,100950.94
2024-02-24T07:12:42.974Z,100946.47
2024-02-24T07:15:14.400Z,100930.28
2024-02-24T07:17:45.767Z,100908.78
2024-02-24T07:20:16.546Z,100934.66
2024-02-24T07:22:50.750Z,100927.47
2024-02-24T07:25:21.802Z,100926.56
2024-02-24T07:27:52.194Z,100916.09
2024-02-24T07:30:22.444Z,100919.53
2024-02-24T07:32:53.129Z,100929.31
2024-02-24T07:35:23.803Z,100919.78
2024-02-24T07:37:54.237Z,100907.59
2024-02-24T07:40:24.712Z,100909.44
2024-02-24T07:42:56.589Z,100908.22
2024-02-24T07:45:29.977Z,100892.16
2024-02-24T07:48:00.709Z,100891.25
2024-02-24T07:50:31.351Z,100902.03
2024-02-24T07:53:01.775Z,100897.66
2024-02-24T07:55:33.348Z,100882.81
2024-02-24T07:58:03.411Z,100885.72
2024-02-24T08:00:33.547Z,100887.31
2024-02-24T08:03:04.410Z,100885.19
2024-02-24T08:05:34.966Z,100894.28
2024-02-24T08:08:05.765Z,100893.34
2024-02-24T08:10:36.106Z,100892.16
2024-02-24T08:13:06.771Z,100891.38
2024-02-24T08:15:37.095Z,100869.97
2024-02-24T08:18:08.143Z,100887.00
2024-02-24T08:20:38.826Z,100881.09
2024-02-24T08:23:09.290Z,100885.72
2024-02-24T08:25:40.678Z,100883.47
2024-02-24T08:28:11.229Z,100877.56
2024-02-24T08:30:41.546Z,100877.97
2024-02-24T08:33:12.200Z,100885.31
2024-02-24T08:35:43.002Z,100876.81
2024-02-24T08:38:13.444Z,100870.16
2024-02-24T08:40:43.922Z,100870.88
2024-02-24T08:43:14.953Z,100863.69
2024-02-24T08:45:45.808Z,100870.88
2024-02-24T08:48:16.261Z,100863.88
2024-02-24T08:50:46.959Z,100862.97
2024-02-24T08:53:17.446Z,100862.47
2024-02-24T08:55:48.326Z,100860.31
2024-02-24T08:58:19.898Z,100873.59
2024-02-24T09:00:50.824Z,100863.16
2024-02-24T09:03:22.471Z,100867.78
2024-02-24T09:05:55.104Z,100870.97
2024-02-24T09:08:25.828Z,100867.41
2024-02-24T09:10:56.488Z,100869.91
2024-02-24T09:13:26.742Z,100868.56
2024-02-24T09:15:57.341Z,100865.50
2024-02-24T09:18:28.678Z,100872.22
2024-02-24T09:20:59.300Z,100875.38
2024-02-24T09:23:29.813Z,100866.69
2024-02-24T09:26:00.819Z,100872.66
2024-02-24T09:28:31.402Z,100883.38
2024-02-24T09:31:01.826Z,100877.66
2024-02-24T09:33:32.501Z,100876.00
2024-02-24T09:36:03.269Z,100877.25
2024-02-24T09:38:33.705Z,100876.50
2024-02-24T09:41:05.587Z,100874.19
2024-02-24T09:43:37.191Z,100883.66
2024-02-24T09:46:08.121Z,100884.38
2024-02-24T09:48:40.886Z,100878.78
2024-02-24T09:51:12.899Z,100885.91
2024-02-24T09:53:44.058Z,100886.75
2024-02-24T09:56:23.086Z,100895.63
2024-02-24T09:59:32.882Z,100893.28
2024-02-24T10:02:03.746Z,100895.13
2024-02-24T10:04:58.865Z,100899.75
2024-02-24T10:07:37.242Z,100891.47
2024-02-24T10:10:09.159Z,100888.25
2024-02-24T10:12:40.002Z,100891.25
2024-02-24T10:15:11.315Z,100883.66
2024-02-24T10:17:42.874Z,100878.06
2024-02-24T10:20:13.679Z,100902.03
2024-02-24T10:22:44.933Z,100903.06
2024-02-24T10:25:17.339Z,100909.28
2024-02-24T10:27:49.786Z,100909.84
2024-02-24T10:30:22.959Z,100911.56
2024-02-24T10:32:57.390Z,100903.13
2024-02-24T10:35:28.888Z,100915.38
2024-02-24T10:38:16.413Z,100917.84
2024-02-24T10:40:51.694Z,100914.72
2024-02-24T10:43:24.517Z,100902.69
2024-02-24T10:45:56.337Z,100915.50
2024-02-24T10:48:27.486Z,100921.53
2024-02-24T10:50:58.833Z,100918.41
2024-02-24T10:53:33.551Z,100917.34
2024-02-24T10:56:05.283Z,100923.75
2024-02-24T10:58:37.812Z,100923.75
2024-02-24T11:01:11.060Z,100937.13
2024-02-24T11:03:42.232Z,100936.81
2024-02-24T11:06:15.751Z,100905.91
2024-02-24T11:08:47.682Z,100938.66
2024-02-24T11:11:18.760Z,100939.03
2024-02-24T11:16:26.297Z,100940.59
2024-02-24T11:18:58.143Z,100951.19
2024-02-24T11:22:02.173Z,100955.34
2024-02-24T11:24:37.400Z,100940.81
2024-02-24T11:27:08.853Z,100957.84
2024-02-24T11:29:41.144Z,100965.44
2024-02-24T11:32:14.800Z,100963.34
2024-02-24T11:34:47.497Z,100966.94
2024-02-24T11:37:20.698Z,100942.25
2024-02-24T11:39:53.154Z,100970.38
2024-02-24T11:42:25.993Z,100979.66
2024-02-24T11:44:58.203Z,100975.94
2024-02-24T11:47:31.078Z,100980.03
2024-02-24T11:50:02.802Z,100989.84
2024-02-24T11:52:35.800Z,100995.94
2024-02-24T11:55:08.085Z,101002.03
2024-02-24T11:57:39.178Z,101008.38
2024-02-24T12:00:10.800Z,101010.31
2024-02-24T12:02:41.774Z,101019.06
2024-02-24T12:05:16.707Z,101022.91
2024-02-24T12:07:48.040Z,101019.34
2024-02-24T12:10:19.142Z,101022.09
2024-02-24T12:12:51.185Z,101030.75
2024-02-24T12:15:22.292Z,101031.72
2024-02-24T12:17:53.364Z,101040.72
2024-02-24T12:20:28.548Z,101014.31
2024-02-24T12:23:09.304Z,101016.69
2024-02-24T12:25:41.712Z,101049.56
2024-02-24T12:28:13.999Z,101021.84
2024-02-24T12:30:47.352Z,101055.66
2024-02-24T12:33:19.893Z,101056.59
2024-02-24T12:35:51.198Z,101058.81
2024-02-24T12:38:22.695Z,101068.59
2024-02-24T12:40:53.919Z,101071.19
2024-02-24T12:43:25.185Z,101075.75
2024-02-24T12:45:58.188Z,101066.66
2024-02-24T12:48:29.323Z,101071.44
2024-02-24T12:51:00.516Z,101073.19
2024-02-24T12:53:31.593Z,101075.66
2024-02-24T12:56:02.789Z,101074.69
2024-02-24T12:58:33.845Z,101070.06
2024-02-24T13:01:05.240Z,101080.03
2024-02-24T13:03:36.331Z,101073.41
2024-02-24T13:06:07.812Z,101087.44
2024-02-24T13:08:39.094Z,101085.03
2024-02-24T13:11:11.833Z,101093.44
2024-02-24T13:13:42.757Z,101085.13
2024-02-24T13:16:13.445Z,101093.56
2024-02-24T13:18:45.317Z,101092.84
2024-02-24T13:21:16.602Z,101102.47
2024-02-24T13:23:47.615Z,101085.84
2024-02-24T13:26:18.445Z,101100.47
2024-02-24T13:28:49.568Z,101104.25
2024-02-24T13:31:24.071Z,101095.16
2024-02-24T13:33:59.218Z,101097.38
2024-02-24T13:36:30.391Z,101104.44
2024-02-24T13:39:02.279Z,101108.53
2024-02-24T13:41:33.636Z,101112.66
2024-02-24T13:44:05.058Z,101110.38
2024-02-24T13:46:36.594Z,101110.66
2024-02-24T13:49:14.562Z,101112.34
2024-02-24T13:51:45.944Z,101109.47
2024-02-24T13:54:17.096Z,101115.28
2024-02-24T13:56:50.868Z,101087.66
2024-02-24T13:59:22.252Z,101120.13
2024-02-24T14:02:02.338Z,101124.94
2024-02-24T14:04:33.690Z,101121.22
2024-02-24T14:07:05.352Z,101120.59
2024-02-24T14:09:38.266Z,101121.00
2024-02-24T14:12:11.226Z,101118.16
2024-02-24T14:14:42.587Z,101116.06
2024-02-24T14:17:15.210Z,101122.09
2024-02-24T14:19:47.142Z,101119.41
2024-02-24T14:22:18.742Z,101099.03
2024-02-24T14:24:49.963Z,101115.00
2024-02-24T14:27:22.486Z,101115.69
2024-02-24T14:29:53.878Z,101119.22
2024-02-24T14:32:26.231Z,101119.47
2024-02-24T14:34:58.109Z,101127.59
2024-02-24T14:37:35.768Z,101134.47
2024-02-24T14:40:10.544Z,101139.94
2024-02-24T14:42:42.206Z,101123.69
2024-02-24T14:45:13.824Z,101144.09
2024-02-24T14:47:45.513Z,101141.81
2024-02-24T14:50:18.493Z,101132.03
2024-02-24T14:52:50.593Z,101135.78
2024-02-24T14:55:23.577Z,101128.31
2024-02-24T14:57:55.081Z,101140.19
2024-02-24T15:00:32.434Z,101144.56
2024-02-24T15:03:10.536Z,101144.38
2024-02-24T15:05:44.598Z,101139.59
2024-02-24T15:08:16.143Z,101143.13
2024-02-24T15:10:48.293Z,101140.84
2024-02-24T15:13:25.483Z,101127.75
2024-02-24T15:15:59.621Z,101130.44
2024-02-24T15:18:32.238Z,101138.38
2024-02-24T15:21:04.183Z,101112.59
2024-02-24T15:23:38.124Z,101143.38
2024-02-24T15:26:11.003Z,101139.22
2024-02-24T15:28:44.503Z,101137.75
2024-02-24T15:31:20.487Z,101108.03
2024-02-24T15:33:56.586Z,101129.66
2024-02-24T15:36:30.865Z,101134.41
2024-02-24T15:39:02.458Z,101131.50
2024-02-24T15:41:35.446Z,101126.72
2024-02-24T15:44:09.720Z,101128.78
2024-02-24T15:46:48.577Z,101102.00
2024-02-24T15:49:21.036Z,101119.66
2024-02-24T15:51:55.496Z,101117.19
2024-02-24T15:54:31.230Z,101122.16
2024-02-24T15:57:03.396Z,101114.09
2024-02-24T16:00:04.440Z,101113.25
2024-02-24T16:02:38.296Z,101133.03
2024-02-24T16:05:10.064Z,101123.44
2024-02-24T16:07:42.809Z,101123.88
2024-02-24T16:10:15.885Z,101118.88
2024-02-24T16:12:47.549Z,101125.50
2024-02-24T16:15:20.536Z,101123.00
2024-02-24T16:17:52.304Z,101123.44
2024-02-24T16:20:24.486Z,101116.38
2024-02-24T16:23:03.855Z,101115.09
2024-02-24T16:25:35.267Z,101122.19
2024-02-24T16:28:09.907Z,101105.16
2024-02-24T16:30:42.540Z,101102.00
2024-02-24T16:33:14.316Z,101105.97
2024-02-24T16:35:46.391Z,101102.63
2024-02-24T16:38:17.853Z,101094.53
2024-02-24T16:40:51.820Z,101096.84
2024-02-24T16:43:24.847Z,101096.84
2024-02-24T16:45:56.566Z,101085.38
2024-02-24T16:48:28.006Z,101092.22
2024-02-24T16:51:01.673Z,101080.19
2024-02-24T16:53:33.362Z,101085.59
2024-02-24T16:56:04.446Z,101076.22
2024-02-24T16:58:39.897Z,101073.50
2024-02-24T17:01:14.324Z,101073.50
2024-02-24T17:03:50.963Z,101065.63
2024-02-24T17:06:23.635Z,101061.88
2024-02-24T17:08:54.743Z,101049.38
2024-02-24T17:11:26.061Z,101054.97
2024-02-24T17:14:01.174Z,101044.78
2024-02-24T17:16:38.535Z,101039.19
2024-02-24T17:19:09.925Z,101045.84
2024-02-24T17:21:44.291Z,100984.91
2024-02-24T17:24:17.846Z,101032.53
2024-02-24T17:26:49.178Z,101033.34
2024-02-24T17:29:20.546Z,101024.84
2024-02-24T17:31:51.840Z,101030.25
2024-02-24T17:34:23.100Z,101025.25
2024-02-24T17:36:55.072Z,101016.31
2024-02-24T17:39:28.356Z,101025.25
2024-02-24T17:42:01.169Z,101008.81
2024-02-24T17:44:34.620Z,101008.19
2024-02-24T17:47:08.262Z,101009.25
2024-02-24T17:49:41.742Z,100976.59
2024-02-24T17:52:13.040Z,101005.91
2024-02-24T17:54:44.216Z,100995.50
2024-02-24T17:57:24.458Z,100989.88
2024-02-24T17:59:57.350Z,100992.59
2024-02-24T18:02:32.285Z,100931.66
2024-02-24T18:05:06.950Z,100989.25
2024-02-24T18:07:48.718Z,100936.44
2024-02-24T18:10:22.417Z,100980.34
2024-02-24T18:12:57.175Z,100984.69
2024-02-24T18:15:34.056Z,100986.75
2024-02-24T18:18:11.761Z,100986.97
2024-02-24T18:20:45.328Z,100991.56
2024-02-24T18:23:20.668Z,100989.03
2024-02-24T18:26:01.426Z,100986.13
2024-02-24T18:28:32.216Z,100980.28
2024-02-24T18:31:04.227Z,100983.63
2024-02-24T18:33:35.281Z,100975.28
2024-02-24T18:36:09.336Z,100979.44
2024-02-24T18:38:43.146Z,100971.53
2024-02-24T18:41:14.055Z,100975.69
2024-02-24T18:43:45.084Z,100963.03
2024-02-24T18:46:19.979Z,100967.78
2024-02-24T18:48:55.674Z,100968.00
2024-02-24T18:51:26.689Z,100958.22
2024-02-24T18:53:59.667Z,100952.22
2024-02-24T18:56:31.423Z,100917.28
2024-02-24T18:59:07.219Z,100958.66
2024-02-24T19:01:40.443Z,100955.34
2024-02-24T19:04:11.524Z,100954.28
2024-02-24T19:06:43.550Z,100941.63
2024-02-24T19:09:17.255Z,100932.88
2024-02-24T19:11:48.555Z,100934.94
2024-02-24T19:14:22.111Z,100932.88
2024-02-24T19:16:53.783Z,100921.44
2024-02-24T19:19:25.810Z,100927.25
2024-02-24T19:21:56.594Z,100925.59
2024-02-24T19:24:27.273Z,100906.25
2024-02-24T19:26:58.710Z,100922.28
2024-02-24T19:29:29.924Z,100930.78
2024-02-24T19:32:01.588Z,100930.78
2024-02-24T19:34:32.560Z,100931.19
2024-02-24T19:37:05.552Z,100932.84
2024-02-24T19:39:37.950Z,100937.59
2024-02-24T19:42:09.112Z,100940.53
2024-02-24T19:44:42.546Z,100943.41
2024-02-24T19:47:14.448Z,100939.88
2024-02-24T19:49:45.297Z,100916.19
2024-02-24T19:52:16.520Z,100925.13
2024-02-24T19:54:50.572Z,100943.81
2024-02-24T19:57:22.740Z,100938.84
2024-02-24T19:59:53.736Z,100938.44
2024-02-24T20:02:24.213Z,100929.91
2024-02-24T20:04:54.837Z,100943.41
2024-02-24T20:07:25.286Z,100939.03
2024-02-24T20:09:56.099Z,100940.88
2024-02-24T20:12:26.841Z,100944.81
2024-02-24T20:14:57.718Z,100952.91
2024-02-24T20:17:28.101Z,100954.34
2024-02-24T20:19:59.600Z,100954.94
2024-02-24T20:22:32.492Z,100958.69
2024-02-24T20:25:05.721Z,100952.66
2024-02-24T20:27:36.381Z,100953.06
2024-02-24T20:30:07.252Z,100951.41
2024-02-24T20:32:37.652Z,100957.44
2024-02-24T20:35:08.617Z,100951.41
2024-02-24T20:37:38.712Z,100951.41
2024-02-24T20:40:10.175Z,100957.81
2024-02-24T20:42:40.583Z,100933.94
2024-02-24T20:45:11.450Z,100941.03
2024-02-24T20:47:41.959Z,100939.75
2024-02-24T20:50:12.519Z,100934.34
2024-02-24T20:52:42.682Z,100909.41
2024-02-24T20:55:13.113Z,100939.75
2024-02-24T20:57:43.329Z,100941.44
2024-02-24T21:00:14.425Z,100952.59
2024-02-24T21:02:45.062Z,100951.78
2024-02-24T21:05:16.426Z,100938.66
2024-02-24T21:07:46.953Z,100939.72
2024-02-24T21:10:17.499Z,100941.59
2024-02-24T21:12:47.732Z,100939.72
2024-02-24T21:15:18.132Z,100941.78
2024-02-24T21:17:48.378Z,100946.94
2024-02-24T21:20:18.742Z,100949.22
2024-02-24T21:22:48.912Z,100955.50
2024-02-24T21:25:19.154Z,100958.78
2024-02-24T21:27:50.611Z,100964.84
2024-02-24T21:30:21.223Z,100967.53
2024-02-24T21:32:54.917Z,100966.31
2024-02-24T21:35:32.262Z,100940.13
2024-02-24T21:38:03.954Z,100972.59
2024-02-24T21:40:35.560Z,100969.88
2024-02-24T21:43:06.834Z,100984.63
2024-02-24T21:45:37.398Z,100979.22
2024-02-24T21:48:07.934Z,100980.09
2024-02-24T21:50:38.583Z,100987.59
2024-02-24T21:53:08.835Z,100987.16
2024-02-24T21:55:39.071Z,100991.34
2024-02-24T21:58:09.770Z,100985.31
2024-02-24T22:00:40.854Z,100983.38
2024-02-24T22:03:11.854Z,100992.72
2024-02-24T22:05:42.877Z,100994.59
2024-02-24T22:08:13.773Z,100997.50
2024-02-24T22:10:44.435Z,101004.56
2024-02-24T22:13:15.664Z,100999.56
2024-02-24T22:15:46.621Z,100998.53
2024-02-24T22:18:17.695Z,101005.59
2024-02-24T22:20:48.555Z,101006.22
2024-02-24T22:23:19.514Z,101002.53
2024-02-24T22:25:50.113Z,101008.16
2024-02-24T22:28:20.966Z,100999.22
2024-02-24T22:30:51.594Z,100989.59
2024-02-24T22:33:22.382Z,101004.19
2024-02-24T22:35:56.188Z,100994.66
2024-02-24T22:38:26.909Z,101006.72
2024-02-24T22:40:58.223Z,100998.78
2024-02-24T22:43:29.506Z,101007.13
2024-02-24T22:46:00.117Z,101009.19
2024-02-24T22:48:32.359Z,101014.97
2024-02-24T22:51:02.516Z,101018.25
2024-02-24T22:53:32.826Z,101026.81
2024-02-24T22:56:03.813Z,101026.13
2024-02-24T22:58:34.175Z,101031.94
2024-02-24T23:01:05.570Z,101041.06
2024-02-24T23:03:36.341Z,101047.09
2024-02-24T23:06:07.427Z,101045.69
2024-02-24T23:08:37.981Z,101052.34
2024-02-24T23:11:08.971Z,101057.16
2024-02-24T23:13:39.769Z,101064.84
2024-02-24T23:16:10.296Z,101074.41
2024-02-24T23:18:41.410Z,101075.66
2024-02-24T23:21:12.831Z,101074.66
2024-02-24T23:23:43.558Z,101082.34
2024-02-24T23:26:13.958Z,101089.00
2024-02-24T23:28:45.214Z,101096.91
2024-02-24T23:31:16.038Z,101102.72
2024-02-24T23:33:46.932Z,101100.25
2024-02-24T23:36:17.600Z,101110.25
2024-02-24T23:38:47.997Z,101109.00
2024-02-24T23:41:19.154Z,101105.25
2024-02-24T23:43:49.564Z,101114.63
2024-02-24T23:46:19.970Z,101117.34
2024-02-24T23:48:50.815Z,101120.66
2024-02-24T23:51:21.475Z,101130.03
2024-02-24T23:53:53.056Z,101120.66
2024-02-24T23:56:26.950Z,101131.91
2024-02-24T23:58:57.663Z,101136.50
